Time;durP1;ratioP1;P1;durP2;ratioP2;P2;SDS_P1;SDS_P2;PMS_P1;PMS_P2;Temp;Humidity;BMP_temperature;BMP_pressure;BME280_temperature;BME280_humidity;BME280_pressure;Samples;Min_cycle;Max_cycle;Signal;HPM_P1;HPM_P2
2022/04/05 00:00:32;;;;;;;22.08;20.17;;;7.10;99.90;;;;;;5072030;28;20025;-66
2022/04/05 00:02:58;;;;;;;21.98;20.08;;;7.10;99.90;;;;;;5071609;28;20020;-65
2022/04/05 00:05:24;;;;;;;21.88;19.98;;;7.10;99.90;;;;;;5070952;28;20059;-64
2022/04/05 00:07:50;;;;;;;21.40;19.58;;;7.10;99.90;;;;;;5072635;28;20021;-65
2022/04/05 00:10:15;;;;;;;21.52;19.63;;;7.10;99.90;;;;;;5071520;28;20024;-65
2022/04/05 00:12:41;;;;;;;21.45;19.60;;;7.10;99.90;;;;;;5072330;28;20043;-65
2022/04/05 00:15:09;;;;;;;22.08;20.17;;;7.10;99.90;;;;;;5072360;28;20082;-65
2022/04/05 00:17:38;;;;;;;21.95;19.95;;;7.10;99.90;;;;;;5071059;28;20078;-65
2022/04/05 00:20:04;;;;;;;21.95;20.05;;;7.10;99.90;;;;;;5072162;28;20083;-64
2022/04/05 00:22:30;;;;;;;22.45;20.55;;;7.10;99.90;;;;;;5072635;28;20024;-65
2022/04/05 00:24:56;;;;;;;21.67;19.77;;;7.10;99.90;;;;;;5070129;28;20025;-65
2022/04/05 00:27:21;;;;;;;21.60;19.70;;;7.20;99.90;;;;;;5072034;28;20062;-65
2022/04/05 00:29:47;;;;;;;21.05;19.25;;;7.20;99.90;;;;;;5071840;28;20029;-65
2022/04/05 00:32:12;;;;;;;20.55;18.75;;;7.20;99.90;;;;;;5072758;28;20024;-65
2022/04/05 00:34:39;;;;;;;21.52;19.63;;;7.20;99.90;;;;;;5070853;28;20029;-64
2022/04/05 00:37:05;;;;;;;21.73;19.83;;;7.20;99.90;;;;;;5072230;28;20477;-65
2022/04/05 00:39:31;;;;;;;21.70;19.80;;;7.20;99.90;;;;;;5071905;28;20035;-64
2022/04/05 00:41:57;;;;;;;20.63;18.83;;;7.20;99.90;;;;;;5072144;28;20096;-65
2022/04/05 00:44:23;;;;;;;20.35;18.55;;;7.20;99.90;;;;;;5071591;28;20016;-65
2022/04/05 00:46:51;;;;;;;20.80;19.00;;;7.20;99.90;;;;;;5072252;28;20029;-65
2022/04/05 00:49:37;;;;;;;20.30;18.50;;;7.20;99.90;;;;;;5071636;28;20501;-65
2022/04/05 00:52:03;;;;;;;20.20;18.40;;;7.20;99.90;;;;;;5070922;28;20013;-64
2022/04/05 00:54:31;;;;;;;19.65;17.85;;;7.20;99.90;;;;;;5071861;28;20017;-65
2022/04/05 00:56:57;;;;;;;21.33;19.48;;;7.10;99.90;;;;;;5072176;28;20028;-66
2022/04/05 00:59:28;;;;;;;22.55;20.40;;;7.20;99.90;;;;;;5074932;28;20050;-65
2022/04/05 01:01:54;;;;;;;20.42;18.60;;;7.20;99.90;;;;;;5075628;28;20020;-65
2022/04/05 01:04:24;;;;;;;19.83;18.02;;;7.20;99.90;;;;;;5076158;28;20433;-67
2022/04/05 01:06:51;;;;;;;19.80;18.00;;;7.20;99.90;;;;;;5075690;28;20020;-64
2022/04/05 01:09:19;;;;;;;19.88;18.08;;;7.20;99.90;;;;;;5075286;28;20459;-65
2022/04/05 01:11:45;;;;;;;19.90;18.10;;;7.20;99.90;;;;;;5075988;28;20035;-65
2022/04/05 01:14:10;;;;;;;18.70;16.90;;;7.20;99.90;;;;;;5075254;28;20119;-65
2022/04/05 01:16:38;;;;;;;17.85;16.15;;;7.20;99.90;;;;;;5074259;28;20691;-66
2022/04/05 01:19:06;;;;;;;18.00;16.30;;;7.10;99.90;;;;;;5075001;28;20519;-66
2022/04/05 01:21:31;;;;;;;19.50;17.65;;;7.20;99.90;;;;;;5075006;28;20032;-63
2022/04/05 01:24:23;;;;;;;18.05;16.35;;;7.10;99.90;;;;;;5074301;28;20043;-66
2022/04/05 01:26:52;;;;;;;17.52;15.82;;;7.20;99.90;;;;;;5072405;28;20039;-66
2022/04/05 01:29:19;;;;;;;21.00;19.10;;;7.10;99.90;;;;;;5074818;28;20373;-63
2022/04/05 01:31:56;;;;;;;19.42;17.63;;;7.10;99.90;;;;;;5074003;28;20533;-64
2022/04/05 01:34:23;;;;;;;18.80;17.00;;;7.10;99.90;;;;;;5073595;28;20041;-63
2022/04/05 01:36:58;;;;;;;18.20;16.50;;;7.00;99.90;;;;;;5074745;28;20033;-66
2022/04/05 01:39:26;;;;;;;18.67;16.88;;;7.00;99.90;;;;;;5074379;28;20555;-64
2022/04/05 01:42:00;;;;;;;18.95;17.15;;;7.00;99.90;;;;;;5075206;28;20389;-66
2022/04/05 01:44:27;;;;;;;19.17;17.38;;;7.00;99.90;;;;;;5074742;28;20025;-64
2022/04/05 01:46:53;;;;;;;19.40;17.60;;;7.00;99.90;;;;;;5075216;28;20021;-64
2022/04/05 01:49:20;;;;;;;19.50;17.70;;;7.00;99.90;;;;;;5074546;28;20025;-65
2022/04/05 01:51:46;;;;;;;19.88;18.08;;;7.00;99.90;;;;;;5075139;28;20077;-65
2022/04/05 01:54:14;;;;;;;19.55;17.75;;;7.00;99.90;;;;;;5074819;28;20028;-64
2022/04/05 01:56:45;;;;;;;19.90;18.10;;;7.00;99.90;;;;;;5075122;28;20028;-64
2022/04/05 01:59:12;;;;;;;19.75;17.95;;;7.00;99.90;;;;;;5073071;28;20037;-65
2022/04/05 02:01:38;;;;;;;20.02;18.23;;;7.00;99.90;;;;;;5074605;28;20108;-64
2022/04/05 02:04:04;;;;;;;19.73;17.92;;;7.00;99.90;;;;;;5074292;28;20048;-64
2022/04/05 02:06:30;;;;;;;21.15;19.13;;;7.00;99.90;;;;;;5074744;28;20119;-65
2022/04/05 02:08:55;;;;;;;20.10;18.30;;;6.90;99.90;;;;;;5074385;28;20043;-65
2022/04/05 02:11:22;;;;;;;20.13;18.33;;;6.90;99.90;;;;;;5074805;28;20477;-65
2022/04/05 02:13:49;;;;;;;19.98;18.17;;;6.90;99.90;;;;;;5074544;28;20384;-64
2022/04/05 02:16:14;;;;;;;20.30;18.50;;;6.90;99.90;;;;;;5072923;28;20052;-65
2022/04/05 02:18:41;;;;;;;20.15;18.35;;;6.90;99.90;;;;;;5074036;28;20481;-65
2022/04/05 02:21:07;;;;;;;22.13;19.95;;;6.90;99.90;;;;;;5072789;28;20481;-65
2022/04/05 02:23:32;;;;;;;19.65;17.85;;;7.00;99.90;;;;;;5074343;28;20040;-65
2022/04/05 02:25:59;;;;;;;19.77;17.98;;;6.90;99.90;;;;;;5072502;28;20017;-65
2022/04/05 02:28:25;;;;;;;19.70;17.90;;;6.90;99.90;;;;;;5074357;28;20108;-65
2022/04/05 02:30:51;;;;;;;19.75;17.95;;;6.90;99.90;;;;;;5074156;28;20055;-66
2022/04/05 02:33:17;;;;;;;19.48;17.67;;;6.90;99.90;;;;;;5073319;28;20032;-66
2022/04/05 02:35:43;;;;;;;19.08;17.27;;;6.90;99.90;;;;;;5073814;28;20024;-66
2022/04/05 02:38:09;;;;;;;19.15;17.35;;;6.90;99.90;;;;;;5074241;28;20032;-65
2022/04/05 02:40:35;;;;;;;19.33;17.52;;;6.90;99.90;;;;;;5073458;28;20489;-66
2022/04/05 02:43:01;;;;;;;19.52;17.73;;;6.80;99.90;;;;;;5073372;28;20020;-66
2022/04/05 02:45:26;;;;;;;19.35;17.55;;;6.90;99.90;;;;;;5073394;28;20385;-66
2022/04/05 02:47:52;;;;;;;19.45;17.65;;;6.80;99.90;;;;;;5073759;28;20031;-66
2022/04/05 02:50:18;;;;;;;19.33;17.52;;;6.80;99.90;;;;;;5072142;28;20032;-67
2022/04/05 02:52:48;;;;;;;19.05;17.25;;;6.80;99.90;;;;;;5073539;28;20062;-66
2022/04/05 02:55:13;;;;;;;19.08;17.27;;;6.80;99.90;;;;;;5073431;28;20047;-66
2022/04/05 02:57:41;;;;;;;18.90;17.10;;;6.80;99.90;;;;;;5073262;28;20492;-66
2022/04/05 03:00:08;;;;;;;18.10;16.40;;;6.90;99.90;;;;;;5073260;28;20016;-67
2022/04/05 03:02:34;;;;;;;18.45;16.75;;;6.90;99.90;;;;;;5073549;28;20029;-67
2022/04/05 03:05:06;;;;;;;18.58;16.77;;;6.80;99.90;;;;;;5073257;28;20028;-66
2022/04/05 03:07:31;;;;;;;18.88;17.08;;;6.80;99.90;;;;;;5073592;28;20028;-67
2022/04/05 03:09:57;;;;;;;18.33;16.63;;;6.90;99.90;;;;;;5071846;28;20070;-67
2022/04/05 03:12:23;;;;;;;18.33;16.63;;;6.80;99.90;;;;;;5073463;28;20477;-66
2022/04/05 03:14:48;;;;;;;18.08;16.38;;;6.90;99.90;;;;;;5073589;28;20020;-67
2022/04/05 03:17:14;;;;;;;18.05;16.35;;;6.90;99.90;;;;;;5073915;28;20031;-67
2022/04/05 03:19:40;;;;;;;18.25;16.55;;;6.90;99.90;;;;;;5073056;28;20088;-67
2022/04/05 03:22:06;;;;;;;17.90;16.20;;;6.90;99.90;;;;;;5071955;28;20104;-65
2022/04/05 03:24:32;;;;;;;17.70;16.00;;;6.90;99.90;;;;;;5073099;28;20099;-67
2022/04/05 03:26:58;;;;;;;17.65;15.95;;;6.90;99.90;;;;;;5073047;28;20036;-66
2022/04/05 03:29:24;;;;;;;17.42;15.73;;;6.80;99.90;;;;;;5071637;28;20033;-66
2022/04/05 03:31:49;;;;;;;17.30;15.60;;;6.80;99.90;;;;;;5073446;28;20028;-66
2022/04/05 03:34:15;;;;;;;16.80;15.10;;;6.90;99.90;;;;;;5072883;28;20101;-66
2022/04/05 03:36:43;;;;;;;16.80;15.10;;;6.80;99.90;;;;;;5072598;28;20086;-66
2022/04/05 03:39:13;;;;;;;16.90;15.20;;;6.80;99.90;;;;;;5072351;28;20492;-66
2022/04/05 03:41:42;;;;;;;17.05;15.35;;;6.80;99.90;;;;;;5071659;28;20029;-67
2022/04/05 03:44:08;;;;;;;16.95;15.25;;;6.80;99.90;;;;;;5072699;28;20070;-66
2022/04/05 03:46:34;;;;;;;16.67;14.98;;;6.90;99.90;;;;;;5072796;28;20020;-66
2022/04/05 03:49:00;;;;;;;16.60;14.90;;;6.80;99.90;;;;;;5072605;28;20032;-66
2022/04/05 03:51:26;;;;;;;16.67;14.98;;;6.80;99.90;;;;;;5072631;28;20044;-66
2022/04/05 03:53:52;;;;;;;16.77;15.07;;;6.80;99.90;;;;;;5071495;28;20025;-65
2022/04/05 03:56:19;;;;;;;16.75;15.05;;;6.80;99.90;;;;;;5072772;28;20481;-66
2022/04/05 03:58:44;;;;;;;16.90;15.20;;;6.80;99.90;;;;;;5072708;28;20036;-66
2022/04/05 04:01:10;;;;;;;16.80;15.10;;;6.90;99.90;;;;;;5070952;28;20107;-67
2022/04/05 04:03:35;;;;;;;17.00;15.30;;;6.90;99.90;;;;;;5072636;28;20025;-68
2022/04/05 04:06:01;;;;;;;17.25;15.55;;;6.90;99.90;;;;;;5072315;28;20473;-67
2022/04/05 04:08:27;;;;;;;17.15;15.45;;;6.90;99.90;;;;;;5072378;28;20024;-67
2022/04/05 04:10:53;;;;;;;16.90;15.20;;;6.90;99.90;;;;;;5072039;28;20021;-65
2022/04/05 04:13:19;;;;;;;16.55;14.85;;;6.90;99.90;;;;;;5072923;28;20032;-67
2022/04/05 04:15:45;;;;;;;16.48;14.77;;;6.90;99.90;;;;;;5072466;28;20024;-67
2022/04/05 04:18:11;;;;;;;16.88;15.18;;;6.90;99.90;;;;;;5072648;28;20119;-67
2022/04/05 04:20:42;;;;;;;16.48;14.77;;;6.90;99.90;;;;;;5072452;28;20412;-67
2022/04/05 04:23:08;;;;;;;16.55;14.85;;;6.90;99.90;;;;;;5073037;28;20020;-67
2022/04/05 04:25:34;;;;;;;16.77;15.07;;;6.90;99.90;;;;;;5072381;28;20465;-67
2022/04/05 04:28:00;;;;;;;16.52;14.82;;;6.90;99.90;;;;;;5071426;28;20059;-66
2022/04/05 04:30:26;;;;;;;17.10;15.30;;;6.90;99.90;;;;;;5072280;28;20376;-67
2022/04/05 04:32:53;;;;;;;16.33;14.63;;;6.90;99.90;;;;;;5073600;28;20024;-67
2022/04/05 04:35:20;;;;;;;16.58;14.88;;;6.90;99.90;;;;;;5076055;28;20048;-67
2022/04/05 04:37:46;;;;;;;16.58;14.88;;;6.90;99.90;;;;;;5076171;28;20029;-67
2022/04/05 04:40:12;;;;;;;16.80;15.10;;;6.90;99.90;;;;;;5076146;28;20519;-66
2022/04/05 04:42:38;;;;;;;16.88;15.18;;;6.90;99.90;;;;;;5076249;28;20070;-67
2022/04/05 04:45:04;;;;;;;16.73;15.02;;;6.90;99.90;;;;;;5074546;28;20119;-67
2022/04/05 04:47:29;;;;;;;17.27;15.57;;;7.00;99.90;;;;;;5074706;28;20043;-66
2022/04/05 04:49:55;;;;;;;17.67;15.98;;;6.90;99.90;;;;;;5075235;28;20020;-69
2022/04/05 04:52:21;;;;;;;17.63;15.93;;;7.00;99.90;;;;;;5075984;28;20493;-66
2022/04/05 04:54:47;;;;;;;17.90;16.20;;;7.00;99.90;;;;;;5075414;28;20029;-67
2022/04/05 04:57:12;;;;;;;17.58;15.88;;;7.00;99.90;;;;;;5075437;28;20485;-69
2022/04/05 04:59:38;;;;;;;17.73;16.02;;;7.00;99.90;;;;;;5074078;28;20052;-67
2022/04/05 05:02:03;;;;;;;17.60;15.90;;;7.00;99.90;;;;;;5076083;28;20040;-67
2022/04/05 05:04:30;;;;;;;17.63;15.93;;;7.00;99.90;;;;;;5075685;28;20052;-64
2022/04/05 05:06:56;;;;;;;17.77;16.08;;;7.00;99.90;;;;;;5074143;28;20112;-67
2022/04/05 05:09:21;;;;;;;17.63;15.93;;;7.00;99.90;;;;;;5073975;28;20060;-67
2022/04/05 05:11:47;;;;;;;17.90;16.20;;;7.00;99.90;;;;;;5075565;28;20499;-66
2022/04/05 05:14:13;;;;;;;18.08;16.38;;;7.10;99.90;;;;;;5075075;28;20115;-67
2022/04/05 05:16:38;;;;;;;17.85;16.15;;;7.00;99.90;;;;;;5075530;28;20059;-67
2022/04/05 05:19:05;;;;;;;17.95;16.25;;;7.10;99.90;;;;;;5074489;28;20050;-67
2022/04/05 05:21:31;;;;;;;17.77;16.08;;;7.00;99.90;;;;;;5075172;28;20444;-67
2022/04/05 05:23:56;;;;;;;17.83;16.13;;;7.10;99.90;;;;;;5075131;28;20016;-66
2022/04/05 05:26:22;;;;;;;18.15;16.45;;;7.10;99.90;;;;;;5075051;28;20116;-67
2022/04/05 05:28:48;;;;;;;17.83;16.13;;;7.10;99.90;;;;;;5074322;28;20028;-65
2022/04/05 05:31:14;;;;;;;17.25;15.55;;;7.10;99.90;;;;;;5074150;28;20028;-66
2022/04/05 05:33:39;;;;;;;17.10;15.40;;;7.10;99.90;;;;;;5074569;28;20025;-67
2022/04/05 05:36:05;;;;;;;16.88;15.18;;;7.10;99.90;;;;;;5075371;28;20124;-65
2022/04/05 05:38:31;;;;;;;17.27;15.57;;;7.10;99.90;;;;;;5074151;28;20498;-68
2022/04/05 05:40:57;;;;;;;16.85;15.15;;;7.10;99.90;;;;;;5073909;28;20170;-66
2022/04/05 05:43:23;;;;;;;17.08;15.38;;;7.10;99.90;;;;;;5073102;28;20055;-67
2022/04/05 05:45:58;;;;;;;17.10;15.40;;;7.10;99.90;;;;;;5075204;28;20146;-64
2022/04/05 05:48:23;;;;;;;17.00;15.30;;;7.10;99.90;;;;;;5074415;28;20025;-66
2022/04/05 05:50:51;;;;;;;17.10;15.40;;;7.10;99.90;;;;;;5074306;28;20114;-63
2022/04/05 05:53:16;;;;;;;17.17;15.48;;;7.20;99.90;;;;;;5074282;28;20028;-65
2022/04/05 05:55:42;;;;;;;16.83;15.13;;;7.20;99.90;;;;;;5072301;28;20028;-67
2022/04/05 05:58:08;;;;;;;17.13;15.43;;;7.20;99.90;;;;;;5073876;28;20029;-66
2022/04/05 06:00:34;;;;;;;16.63;14.93;;;7.20;99.90;;;;;;5073532;28;20051;-66
2022/04/05 06:03:03;;;;;;;17.08;15.38;;;7.20;99.90;;;;;;5074001;28;20043;-66
2022/04/05 06:05:30;;;;;;;17.60;15.80;;;7.20;99.90;;;;;;5073907;28;20025;-66
2022/04/05 06:07:56;;;;;;;16.92;15.23;;;7.30;99.90;;;;;;5074320;28;20029;-69
2022/04/05 06:10:22;;;;;;;16.70;15.00;;;7.30;99.90;;;;;;5072523;28;20467;-67
2022/04/05 06:12:49;;;;;;;17.02;15.32;;;7.30;99.90;;;;;;5073916;28;20063;-68
2022/04/05 06:15:16;;;;;;;17.40;15.70;;;7.30;99.90;;;;;;5074568;28;20035;-67
2022/04/05 06:17:44;;;;;;;17.10;15.40;;;7.30;99.90;;;;;;5056690;28;20132;-67
2022/04/05 06:20:12;;;;;;;17.48;15.68;;;7.30;99.90;;;;;;5073519;28;20021;-67
2022/04/05 06:22:46;;;;;;;16.80;15.10;;;7.30;99.90;;;;;;5073710;28;20032;-66
2022/04/05 06:25:14;;;;;;;16.45;14.75;;;7.30;99.90;;;;;;5073529;28;20024;-67
2022/04/05 06:27:40;;;;;;;16.55;14.85;;;7.30;99.90;;;;;;5071947;28;20102;-66
2022/04/05 06:30:07;;;;;;;15.90;14.20;;;7.30;99.90;;;;;;5073244;28;20411;-66
2022/04/05 06:32:33;;;;;;;15.85;14.15;;;7.30;99.90;;;;;;5074308;28;20032;-66
2022/04/05 06:34:59;;;;;;;15.85;14.15;;;7.40;99.90;;;;;;5074036;28;20081;-67
2022/04/05 06:37:25;;;;;;;16.33;14.63;;;7.30;99.90;;;;;;5071782;28;20056;-66
2022/04/05 06:39:50;;;;;;;16.00;14.30;;;7.40;99.90;;;;;;5072137;28;20115;-66
2022/04/05 06:42:19;;;;;;;16.10;14.40;;;7.40;99.90;;;;;;5073365;28;20016;-66
2022/04/05 06:44:45;;;;;;;16.80;15.10;;;7.40;99.90;;;;;;5072039;28;20025;-66
2022/04/05 06:47:11;;;;;;;16.20;14.50;;;7.40;99.90;;;;;;5071882;28;20088;-66
2022/04/05 06:49:38;;;;;;;15.75;14.05;;;7.50;99.90;;;;;;5071940;28;20028;-67
2022/04/05 06:52:06;;;;;;;16.52;14.82;;;7.50;99.90;;;;;;5073203;28;20029;-66
2022/04/05 06:54:32;;;;;;;;;;;7.50;99.90;;;;;;5073359;28;20039;-66
2022/04/05 06:56:58;;;;;;;16.05;14.35;;;7.70;99.90;;;;;;5072934;28;20279;-67
2022/04/05 06:59:23;;;;;;;15.93;14.23;;;7.70;99.90;;;;;;5071846;28;20025;-67
2022/04/05 07:01:49;;;;;;;16.42;14.73;;;7.80;99.90;;;;;;5071701;28;20025;-66
2022/04/05 07:04:14;;;;;;;17.45;15.75;;;8.00;99.90;;;;;;5073209;28;20025;-66
2022/04/05 07:06:40;;;;;;;17.52;15.82;;;8.10;99.90;;;;;;5072385;28;20031;-67
2022/04/05 07:09:07;;;;;;;17.58;15.88;;;8.10;99.90;;;;;;5072154;28;20484;-67
2022/04/05 07:11:33;;;;;;;17.90;16.20;;;8.30;99.90;;;;;;5073246;28;20047;-65
2022/04/05 07:13:58;;;;;;;19.52;17.73;;;8.40;99.90;;;;;;5073427;28;20119;-66
2022/04/05 07:16:24;;;;;;;18.77;16.98;;;8.30;99.90;;;;;;5072397;28;20518;-66
2022/04/05 07:18:50;;;;;;;18.65;16.85;;;8.30;99.90;;;;;;5072582;28;20107;-65
2022/04/05 07:21:16;;;;;;;18.70;16.90;;;8.30;99.90;;;;;;5073092;28;20020;-65
2022/04/05 07:23:44;;;;;;;22.83;20.73;;;8.30;99.90;;;;;;5072985;28;20028;-64
2022/04/05 07:26:10;;;;;;;;;;;8.20;99.90;;;;;;5072091;28;20025;-66
2022/04/05 07:28:36;;;;;;;18.70;16.90;;;8.30;99.90;;;;;;5072831;28;19919;-66
2022/04/05 07:31:02;;;;;;;19.58;17.58;;;8.30;99.90;;;;;;5073043;28;20020;-68
2022/04/05 07:33:28;;;;;;;19.35;17.55;;;8.30;99.90;;;;;;5073206;28;20534;-65
2022/04/05 07:35:54;;;;;;;19.83;18.02;;;8.30;99.90;;;;;;5072156;28;20024;-66
2022/04/05 07:38:20;;;;;;;19.80;18.00;;;;;;;;;;5072671;28;20476;-65
2022/04/05 07:40:49;;;;;;;19.38;17.58;;;;;;;;;;5072080;28;20025;-67
2022/04/05 07:43:19;;;;;;;19.50;17.70;;;;;;;;;;5071855;28;20408;-66
2022/04/05 07:45:48;;;;;;;19.10;17.30;;;8.20;99.90;;;;;;5072296;28;20021;-65
2022/04/05 07:48:14;;;;;;;18.90;17.10;;;8.20;99.90;;;;;;5072422;28;20116;-66
2022/04/05 07:50:43;;;;;;;19.33;17.52;;;8.20;99.90;;;;;;5072136;28;20051;-65
2022/04/05 07:53:08;;;;;;;;;;;8.20;99.90;;;;;;5071279;28;20025;-66
2022/04/05 07:55:34;;;;;;;19.05;17.25;;;8.30;99.90;;;;;;5071925;28;19909;-64
2022/04/05 07:57:59;;;;;;;19.20;17.40;;;8.40;99.90;;;;;;5072182;28;20374;-64
2022/04/05 08:00:27;;;;;;;17.42;15.73;;;8.40;99.90;;;;;;5072550;28;20062;-64
2022/04/05 08:02:52;;;;;;;17.55;15.85;;;8.40;99.90;;;;;;5071538;28;20112;-65
2022/04/05 08:05:18;;;;;;;18.10;16.40;;;8.50;99.90;;;;;;5072635;28;20055;-64
2022/04/05 08:07:44;;;;;;;18.33;16.63;;;8.50;99.90;;;;;;5071047;28;20039;-64
2022/04/05 08:10:10;;;;;;;17.38;15.68;;;8.40;99.90;;;;;;5070540;28;20024;-64
2022/04/05 08:12:47;;;;;;;17.08;15.38;;;8.30;99.90;;;;;;5070894;28;20021;-61
2022/04/05 08:15:15;;;;;;;19.00;17.20;;;8.40;99.90;;;;;;5072068;28;20025;-64
2022/04/05 08:17:41;;;;;;;18.55;16.75;;;8.40;99.90;;;;;;5072163;28;20032;-64
2022/04/05 08:20:08;;;;;;;19.15;17.35;;;8.40;99.90;;;;;;5071985;28;20020;-65
2022/04/05 08:22:33;;;;;;;19.50;17.70;;;8.50;99.90;;;;;;5072182;28;20040;-65
2022/04/05 08:24:59;;;;;;;20.17;18.38;;;8.40;99.90;;;;;;5071982;28;20025;-64
2022/04/05 08:27:25;;;;;;;20.35;18.55;;;8.50;99.90;;;;;;5072009;28;20081;-64
2022/04/05 08:29:51;;;;;;;20.38;18.58;;;8.60;99.90;;;;;;5070160;28;20028;-64
2022/04/05 08:32:17;;;;;;;20.08;18.27;;;8.60;99.90;;;;;;5072299;28;20551;-62
2022/04/05 08:34:45;;;;;;;21.08;19.20;;;8.60;99.90;;;;;;5071697;28;20393;-67
2022/04/05 08:37:11;;;;;;;21.10;19.20;;;8.70;99.90;;;;;;5070920;28;20024;-64
2022/04/05 08:39:38;;;;;;;19.63;17.83;;;8.70;99.90;;;;;;5072652;28;20090;-64
2022/04/05 08:42:06;;;;;;;20.25;18.45;;;8.50;99.90;;;;;;5072182;28;20021;-65
2022/04/05 08:44:31;;;;;;;19.67;17.88;;;8.40;99.90;;;;;;5071826;28;20027;-64
2022/04/05 08:47:00;;;;;;;20.13;18.33;;;8.50;99.90;;;;;;5070593;28;20495;-64
2022/04/05 08:49:28;;;;;;;20.05;18.25;;;8.50;99.90;;;;;;5071519;28;20082;-64
2022/04/05 08:51:53;;;;;;;20.08;18.27;;;8.70;99.90;;;;;;5072223;28;20028;-65
2022/04/05 08:54:19;;;;;;;19.95;18.15;;;8.70;99.90;;;;;;5071549;28;20119;-64
2022/04/05 08:56:47;;;;;;;20.05;18.15;;;8.60;99.90;;;;;;5072110;28;20025;-66
2022/04/05 08:59:13;;;;;;;19.83;18.02;;;8.60;99.90;;;;;;5070123;28;20115;-66
2022/04/05 09:01:40;;;;;;;20.73;18.83;;;8.60;99.90;;;;;;4720028;28;9999723;-65
2022/04/05 09:04:05;;;;;;;20.95;19.15;;;8.60;99.90;;;;;;5072170;28;20373;-64
2022/04/05 09:06:33;;;;;;;20.48;18.67;;;8.60;99.90;;;;;;5086912;28;20070;-64
2022/04/05 09:09:10;;;;;;;20.63;18.83;;;8.60;99.90;;;;;;5086897;28;20086;-64
2022/04/05 09:11:42;;;;;;;20.55;18.75;;;8.50;99.90;;;;;;5069550;28;20037;-66
2022/04/05 09:14:07;;;;;;;20.48;18.67;;;8.60;99.90;;;;;;5068816;28;20024;-67
2022/04/05 09:16:35;;;;;;;20.63;18.83;;;8.70;99.90;;;;;;5068684;28;20039;-63
2022/04/05 09:19:14;;;;;;;21.40;19.50;;;8.70;99.90;;;;;;5084704;28;20714;-64
2022/04/05 09:21:57;;;;;;;21.80;19.90;;;8.80;99.90;;;;;;5093285;28;20028;-66
2022/04/05 09:24:35;;;;;;;21.77;19.88;;;8.90;99.90;;;;;;5091993;28;20028;-65
2022/04/05 09:27:02;;;;;;;21.85;19.95;;;8.90;99.90;;;;;;5092280;28;20046;-65
2022/04/05 09:29:38;;;;;;;21.58;19.67;;;8.90;99.90;;;;;;5082090;28;20028;-64
2022/04/05 09:32:04;;;;;;;21.42;19.52;;;9.00;99.90;;;;;;5071993;28;20024;-65
2022/04/05 09:34:29;;;;;;;20.65;18.85;;;9.00;99.90;;;;;;5072695;28;20397;-64
2022/04/05 09:36:55;;;;;;;20.85;19.05;;;9.00;99.90;;;;;;5091231;28;20024;-65
2022/04/05 09:39:25;;;;;;;21.52;19.63;;;9.00;99.90;;;;;;5091215;28;20028;-65
2022/04/05 09:42:07;;;;;;;20.70;18.90;;;9.00;99.90;;;;;;5071652;28;20027;-65
2022/04/05 09:44:37;;;;;;;20.58;18.77;;;9.00;99.90;;;;;;5072091;28;20078;-65
2022/04/05 09:47:07;;;;;;;19.88;18.08;;;;;;;;;;5074859;28;20091;-65
2022/04/05 09:49:39;;;;;;;19.42;17.63;;;9.10;99.90;;;;;;5079163;28;20048;-66
2022/04/05 09:52:28;;;;;;;19.15;17.35;;;9.20;99.90;;;;;;5081580;28;20024;-61
2022/04/05 09:54:54;;;;;;;19.73;17.92;;;9.30;99.90;;;;;;5081369;28;20056;-65
2022/04/05 09:57:31;;;;;;;20.40;18.60;;;9.50;99.90;;;;;;5082547;28;20487;-65
2022/04/05 10:00:12;;;;;;;21.13;19.33;;;9.70;99.90;;;;;;5084078;28;20028;-65
2022/04/05 10:03:10;;;;;;;21.25;19.38;;;9.70;99.90;;;;;;5084092;28;20088;-65
2022/04/05 10:05:38;;;;;;;21.30;19.50;;;9.70;99.90;;;;;;5084899;28;20025;-64
2022/04/05 10:08:04;;;;;;;21.27;19.48;;;9.70;99.90;;;;;;5073868;28;20031;-63
2022/04/05 10:10:30;;;;;;;21.90;20.05;;;9.70;99.90;;;;;;5070656;28;20405;-64
2022/04/05 10:12:56;;;;;;;21.65;19.80;;;9.60;99.90;;;;;;5072783;28;20480;-66
2022/04/05 10:15:22;;;;;;;20.88;19.08;;;9.70;99.90;;;;;;5074674;28;20028;-65
2022/04/05 10:17:56;;;;;;;20.65;18.85;;;9.70;99.90;;;;;;5074232;28;20025;-62
2022/04/05 10:20:23;;;;;;;20.95;19.15;;;9.70;99.90;;;;;;5072931;28;20024;-65
2022/04/05 10:22:53;;;;;;;21.70;19.80;;;9.70;99.90;;;;;;5073766;28;20020;-66
2022/04/05 10:25:21;;;;;;;21.58;19.73;;;9.80;99.90;;;;;;5072245;28;20104;-66
2022/04/05 10:27:48;;;;;;;20.30;18.50;;;10.00;99.90;;;;;;5073976;28;20023;-66
2022/04/05 10:30:43;;;;;;;17.90;16.20;;;10.30;99.90;;;;;;5071854;28;20274;-65
2022/04/05 10:33:12;;;;;;;17.17;15.48;;;10.50;99.90;;;;;;5074803;28;20029;-66
2022/04/05 10:35:57;;;;;;;16.05;14.35;;;11.10;99.90;;;;;;5074489;28;20043;-68
2022/04/05 10:38:24;;;;;;;14.95;12.95;;;11.40;99.90;;;;;;5074574;28;20030;-64
2022/04/05 10:41:10;;;;;;;15.18;13.57;;;11.50;99.90;;;;;;5073689;28;20042;-63
2022/04/05 10:43:38;;;;;;;14.73;12.43;;;11.60;99.90;;;;;;5073886;28;20025;-61
2022/04/05 10:46:05;;;;;;;14.77;12.50;;;11.60;99.90;;;;;;5073552;28;20024;-62
2022/04/05 10:48:31;;;;;;;14.90;12.98;;;11.60;99.90;;;;;;5073866;28;20032;-61
2022/04/05 10:51:00;;;;;;;15.10;13.20;;;11.60;99.90;;;;;;5073638;28;20585;-62
2022/04/05 10:53:33;;;;;;;14.88;12.40;;;11.60;99.90;;;;;;5073268;28;20021;-65
2022/04/05 10:56:10;;;;;;;14.38;11.18;;;11.60;99.90;;;;;;5073586;28;20035;-65
2022/04/05 10:58:52;;;;;;;15.15;12.50;;;11.70;99.90;;;;;;5073235;28;20027;-64
2022/04/05 11:01:19;;;;;;;15.95;10.95;;;;;;;;;;5073434;28;20475;-64
2022/04/05 11:04:09;;;;;;;14.05;10.23;;;11.90;99.90;;;;;;5072682;28;20024;-64
2022/04/05 11:06:59;;;;;;;14.00;9.80;;;12.60;99.90;;;;;;5073613;28;20021;-63
2022/04/05 11:09:25;;;;;;;13.27;8.38;;;12.80;99.90;;;;;;5080159;28;20050;-64
2022/04/05 11:11:55;;;;;;;11.93;7.03;;;12.80;99.90;;;;;;5093321;28;20027;-63
2022/04/05 11:14:39;;;;;;;8.75;5.20;;;12.80;99.90;;;;;;5091773;28;20614;-64
2022/04/05 11:17:06;;;;;;;8.93;5.47;;;13.20;99.90;;;;;;5093368;28;20392;-64
2022/04/05 11:19:37;;;;;;;9.30;5.80;;;13.40;99.90;;;;;;5091358;28;20431;-64
2022/04/05 11:22:24;;;;;;;8.57;5.10;;;13.30;99.90;;;;;;5093153;28;20476;-64
2022/04/05 11:24:59;;;;;;;8.35;5.00;;;13.30;99.90;;;;;;5092315;28;20073;-64
2022/04/05 11:27:30;;;;;;;8.07;4.80;;;13.00;99.90;;;;;;5093066;28;20028;-63
2022/04/05 11:30:21;;;;;;;9.05;5.13;;;13.00;99.90;;;;;;5103657;28;20044;-66
2022/04/05 11:33:17;;;;;;;8.68;5.30;;;12.90;99.90;;;;;;5093814;28;20153;-61
2022/04/05 11:35:49;;;;;;;8.23;5.10;;;12.60;99.90;;;;;;5090879;28;20052;-60
2022/04/05 11:38:18;;;;;;;9.55;5.68;;;12.50;99.90;;;;;;5092945;28;20439;-63
2022/04/05 11:40:45;;;;;;;;;;;12.20;99.90;;;;;;5077823;28;20028;-64
2022/04/05 11:43:24;;;;;;;9.63;5.78;;;12.10;99.90;;;;;;4366884;28;10000630;-62
2022/04/05 11:46:09;;;;;;;8.70;5.50;;;12.20;99.90;;;;;;5072217;28;20066;-59
2022/04/05 11:48:39;;;;;;;8.75;5.20;;;12.30;99.90;;;;;;5065990;28;20040;-63
2022/04/05 11:51:08;;;;;;;8.38;5.00;;;12.50;99.90;;;;;;5053029;28;20482;-65
2022/04/05 11:53:33;;;;;;;8.27;4.90;;;12.80;99.90;;;;;;5051600;28;20067;-63
2022/04/05 11:56:06;;;;;;;8.30;5.00;;;12.90;99.90;;;;;;5050830;28;20056;-61
2022/04/05 11:58:34;;;;;;;8.70;5.20;;;13.20;99.90;;;;;;5070807;28;20032;-62
2022/04/05 12:01:01;;;;;;;;;;;12.80;99.90;;;;;;5071120;28;20029;-63
2022/04/05 12:03:27;;;;;;;8.80;5.20;;;12.70;99.90;;;;;;5072420;28;19950;-64
2022/04/05 12:05:53;;;;;;;9.13;5.38;;;12.60;99.90;;;;;;5072142;28;20117;-58
2022/04/05 12:08:18;;;;;;;8.80;5.32;;;12.60;99.90;;;;;;5072428;28;20040;-62
2022/04/05 12:10:45;;;;;;;8.45;5.00;;;12.70;99.90;;;;;;5089978;28;20031;-58
2022/04/05 12:13:11;;;;;;;8.63;5.13;;;12.70;99.90;;;;;;5092122;28;20099;-61
2022/04/05 12:15:37;;;;;;;10.55;6.18;;;12.90;99.90;;;;;;5092029;28;20105;-63
2022/04/05 12:18:28;;;;;;;9.55;5.70;;;12.80;99.90;;;;;;5090785;28;20111;-62
2022/04/05 12:21:08;;;;;;;9.00;5.40;;;12.60;99.90;;;;;;5092250;28;20031;-63
2022/04/05 12:23:39;;;;;;;8.93;5.30;;;12.40;99.90;;;;;;5091028;28;20044;-62
2022/04/05 12:26:21;;;;;;;8.80;5.28;;;12.10;99.90;;;;;;5091574;28;20095;-63
2022/04/05 12:29:00;;;;;;;9.70;5.80;;;12.00;99.90;;;;;;5090629;28;20028;-65
2022/04/05 12:31:30;;;;;;;9.45;5.65;;;11.80;99.90;;;;;;5092196;28;20025;-67
2022/04/05 12:34:00;;;;;;;10.73;6.43;;;11.70;99.90;;;;;;5091899;28;20028;-67
2022/04/05 12:36:54;;;;;;;9.80;5.80;;;11.50;99.90;;;;;;5092186;28;20387;-64
2022/04/05 12:39:27;;;;;;;13.60;8.70;;;11.40;99.90;;;;;;5091186;28;20028;-66
2022/04/05 12:41:57;;;;;;;13.57;8.80;;;11.20;99.90;;;;;;5091962;28;20112;-66
2022/04/05 12:44:26;;;;;;;16.75;9.55;;;11.10;99.90;;;;;;5090790;28;20522;-66
2022/04/05 12:47:00;;;;;;;14.23;9.18;;;11.10;99.90;;;;;;5092077;28;20027;-65